Sealand New York — 9HA3394 — position and weather

sailwx.info

Track history (hours):
 
Tides and Currents Weather Stations Pressure Air Temp Water Temp Dewpoint Dewpoint Depression Visibility Wind Speed Wind Dir Waves Ship Positions

Sealand New York

Last reported at 2017-Dec-09 04:35 UTC. Time now 2017-Dec-11 04:20 UTC.
Position N 25°33' W 079°37'.

Length 304 m; draft 11 m.

Type: Cargo ship. MMSI: 229544000.

Date/timePositionNaut miles runAvg speedWind from/ knotsBaromVisibWave heightAir tempDewpointWater temp
2017-Dec-09 04:35N 25°33' W 079°37'118.0
2017-Dec-09 04:30N 25°35' W 079°37'917.7
2017-Dec-09 04:00N 25°43' W 079°38'816.0
2017-Dec-09 03:30N 25°51' W 079°38'3 6.1
2017-Dec-09 03:00N 25°54' W 079°39'2 3.5
2017-Dec-09 02:30N 25°53' W 079°39'2 3.2
2017-Dec-09 02:00N 25°51' W 079°39'1 2.1
2017-Dec-09 01:30N 25°50' W 079°40'4 7.4
2017-Dec-09 01:00N 25°51' W 079°44'917.4
2017-Dec-09 00:30N 25°56' W 079°52'918.1
2017-Dec-09 00:00N 26°02' W 079°58'713.9
2017-Dec-08 23:30N 26°06' W 080°05'2 3.3
2017-Dec-08 23:00N 26°05' W 080°07'1 1.5
2017-Dec-08 22:30N 26°04' W 080°07'0 0.0
2017-Dec-08 22:00N 26°04' W 080°07'0 0.0
2017-Dec-08 21:22N 26°04' W 080°07'0 0.0
2017-Dec-08 20:52N 26°04' W 080°07'0 0.0
2017-Dec-08 20:25N 26°04' W 080°07'0 0.0
2017-Dec-08 19:58N 26°04' W 080°07'0 0.0
2017-Dec-08 19:25N 26°04' W 080°07'0 0.0
2017-Dec-08 18:58N 26°04' W 080°07'0 0.0
2017-Dec-08 18:28N 26°04' W 080°07'0 0.0
2017-Dec-08 17:58N 26°04' W 080°07'0 0.0
2017-Dec-08 17:28N 26°04' W 080°07'0 0.0
2017-Dec-08 16:58N 26°04' W 080°07'0 0.0
2017-Dec-08 16:28N 26°04' W 080°07'0 0.0
2017-Dec-08 15:58N 26°04' W 080°07'0 0.0
2017-Dec-08 15:28N 26°04' W 080°07'0 0.0
2017-Dec-08 14:58N 26°04' W 080°07'0 0.0
2017-Dec-08 14:28N 26°04' W 080°07'0 0.0
2017-Dec-08 13:58N 26°04' W 080°07'0 0.0
2017-Dec-08 13:28N 26°04' W 080°07'0 0.0
2017-Dec-08 12:58N 26°04' W 080°07'0 0.0
2017-Dec-08 12:28N 26°04' W 080°07'0 0.0
2017-Dec-08 11:58N 26°04' W 080°07'0 0.0
2017-Dec-08 11:28N 26°04' W 080°07'0 0.0
2017-Dec-08 10:55N 26°04' W 080°07'0 0.0
2017-Dec-08 10:19N 26°04' W 080°07'0 0.0
2017-Dec-08 09:58N 26°04' W 080°07'0 0.0
2017-Dec-08 09:22N 26°04' W 080°07'0 0.0
2017-Dec-08 08:55N 26°04' W 080°07'0 0.0
2017-Dec-08 08:22N 26°04' W 080°07'0 0.0
2017-Dec-08 07:58N 26°04' W 080°07'0 0.0
2017-Dec-08 07:25N 26°04' W 080°07'0 0.0
2017-Dec-08 06:58N 26°04' W 080°07'0 0.0
2017-Dec-08 06:28N 26°04' W 080°07'0 0.0
2017-Dec-08 05:58N 26°04' W 080°07'0 0.0
2017-Dec-08 05:25N 26°04' W 080°07'0 0.0
2017-Dec-08 04:55N 26°04' W 080°07'0 0.0
2017-Dec-08 04:28N 26°04' W 080°07'0 0.0
2017-Dec-08 03:58N 26°04' W 080°07'0 0.0
2017-Dec-08 03:28N 26°04' W 080°07'0 0.0
2017-Dec-08 02:58N 26°04' W 080°07'0 0.0
2017-Dec-08 02:28N 26°04' W 080°07'0 0.0
2017-Dec-08 01:58N 26°04' W 080°07'0 0.0
2017-Dec-08 01:28N 26°04' W 080°07'0 0.0
2017-Dec-08 00:58N 26°04' W 080°07'0 0.0
2017-Dec-08 00:28N 26°04' W 080°07'0 0.0
2017-Dec-07 23:58N 26°04' W 080°07'0 0.0
2017-Dec-07 23:28N 26°04' W 080°07'0 0.0
2017-Dec-07 22:58N 26°04' W 080°07'0 0.0
2017-Dec-07 22:28N 26°04' W 080°07'0 0.0
2017-Dec-07 21:58N 26°04' W 080°07'0 0.0
2017-Dec-07 21:28N 26°04' W 080°07'0 0.6
2017-Dec-07 21:00N 26°05' W 080°07'1 2.6
2017-Dec-07 20:30N 26°06' W 080°06'5 9.6
2017-Dec-07 20:00N 26°06' W 080°01'4 8.2
2017-Dec-07 19:30N 26°06' W 079°56'5 9.9
2017-Dec-07 19:00N 26°08' W 079°51'510.2
2017-Dec-07 18:30N 26°10' W 079°46'4 8.7
2017-Dec-07 18:00N 26°12' W 079°41'612.1
2017-Dec-07 17:30N 26°14' W 079°35'612.8
2017-Dec-07 17:00N 26°16' W 079°28'612.9
2017-Dec-07 16:30N 26°18' W 079°21'  
2017-Nov-30 20:47N 38°53' W 031°34'1118.0
2017-Nov-30 20:10N 38°54' W 031°20'318.2
2017-Nov-30 20:00N 38°54' W 031°16'918.0
2017-Nov-30 19:30N 38°55' W 031°04'1018.2
2017-Nov-30 18:57N 38°56' W 030°52'818.1
2017-Nov-30 18:30N 38°57' W 030°41'918.5
2017-Nov-30 18:00N 38°58' W 030°29'918.6
2017-Nov-30 17:30N 38°59' W 030°17'918.3
2017-Nov-30 17:00N 38°60' W 030°06'918.5
2017-Nov-30 16:30N 39°02' W 029°54'918.5
2017-Nov-30 16:00N 39°03' W 029°42'918.8
2017-Nov-30 15:30N 39°05' W 029°30'918.8
2017-Nov-30 15:00N 39°07' W 029°18'918.8
2017-Nov-30 14:30N 39°09' W 029°07'1019.0
2017-Nov-30 14:00N 39°10' W 028°54'918.8
2017-Nov-30 13:30N 39°12' W 028°43'918.8
2017-Nov-30 13:00N 39°14' W 028°31'918.5
2017-Nov-30 12:30N 39°16' W 028°19'918.3
2017-Nov-30 12:00N 39°18' W 028°07'918.6
2017-Nov-30 11:30N 39°20' W 027°56'918.7
2017-Nov-30 11:00N 39°20' W 027°44'918.7
2017-Nov-30 10:30N 39°20' W 027°31'918.6
2017-Nov-30 10:00N 39°20' W 027°19'918.6
2017-Nov-30 09:30N 39°19' W 027°07'918.6
2017-Nov-30 09:00N 39°19' W 026°55'  
Track history (hours):
 
Tides and Currents Weather Stations Pressure Air Temp Water Temp Dewpoint Dewpoint Depression Visibility Wind Speed Wind Dir Waves Ship Positions

Sealand New York

Last reported at 2017-Dec-09 04:35 UTC. Time now 2017-Dec-11 04:20 UTC.
Position N 25°33' W 079°37'.

Length 304 m; draft 11 m.

Type: Cargo ship. MMSI: 229544000.

Date/timePositionNaut miles runAvg speedWind from/ knotsBaromVisibWave heightAir tempDewpointWater temp
2017-Dec-09 04:35N 25°33' W 079°37'118.0
2017-Dec-09 04:30N 25°35' W 079°37'917.7
2017-Dec-09 04:00N 25°43' W 079°38'816.0
2017-Dec-09 03:30N 25°51' W 079°38'3 6.1
2017-Dec-09 03:00N 25°54' W 079°39'2 3.5
2017-Dec-09 02:30N 25°53' W 079°39'2 3.2
2017-Dec-09 02:00N 25°51' W 079°39'1 2.1
2017-Dec-09 01:30N 25°50' W 079°40'4 7.4
2017-Dec-09 01:00N 25°51' W 079°44'917.4
2017-Dec-09 00:30N 25°56' W 079°52'918.1
2017-Dec-09 00:00N 26°02' W 079°58'713.9
2017-Dec-08 23:30N 26°06' W 080°05'2 3.3
2017-Dec-08 23:00N 26°05' W 080°07'1 1.5
2017-Dec-08 22:30N 26°04' W 080°07'0 0.0
2017-Dec-08 22:00N 26°04' W 080°07'0 0.0
2017-Dec-08 21:22N 26°04' W 080°07'0 0.0
2017-Dec-08 20:52N 26°04' W 080°07'0 0.0
2017-Dec-08 20:25N 26°04' W 080°07'0 0.0
2017-Dec-08 19:58N 26°04' W 080°07'0 0.0
2017-Dec-08 19:25N 26°04' W 080°07'0 0.0
2017-Dec-08 18:58N 26°04' W 080°07'0 0.0
2017-Dec-08 18:28N 26°04' W 080°07'0 0.0
2017-Dec-08 17:58N 26°04' W 080°07'0 0.0
2017-Dec-08 17:28N 26°04' W 080°07'0 0.0
2017-Dec-08 16:58N 26°04' W 080°07'0 0.0
2017-Dec-08 16:28N 26°04' W 080°07'0 0.0
2017-Dec-08 15:58N 26°04' W 080°07'0 0.0
2017-Dec-08 15:28N 26°04' W 080°07'0 0.0
2017-Dec-08 14:58N 26°04' W 080°07'0 0.0
2017-Dec-08 14:28N 26°04' W 080°07'0 0.0
2017-Dec-08 13:58N 26°04' W 080°07'0 0.0
2017-Dec-08 13:28N 26°04' W 080°07'0 0.0
2017-Dec-08 12:58N 26°04' W 080°07'0 0.0
2017-Dec-08 12:28N 26°04' W 080°07'0 0.0
2017-Dec-08 11:58N 26°04' W 080°07'0 0.0
2017-Dec-08 11:28N 26°04' W 080°07'0 0.0
2017-Dec-08 10:55N 26°04' W 080°07'0 0.0
2017-Dec-08 10:19N 26°04' W 080°07'0 0.0
2017-Dec-08 09:58N 26°04' W 080°07'0 0.0
2017-Dec-08 09:22N 26°04' W 080°07'0 0.0
2017-Dec-08 08:55N 26°04' W 080°07'0 0.0
2017-Dec-08 08:22N 26°04' W 080°07'0 0.0
2017-Dec-08 07:58N 26°04' W 080°07'0 0.0
2017-Dec-08 07:25N 26°04' W 080°07'0 0.0
2017-Dec-08 06:58N 26°04' W 080°07'0 0.0
2017-Dec-08 06:28N 26°04' W 080°07'0 0.0
2017-Dec-08 05:58N 26°04' W 080°07'0 0.0
2017-Dec-08 05:25N 26°04' W 080°07'0 0.0
2017-Dec-08 04:55N 26°04' W 080°07'0 0.0
2017-Dec-08 04:28N 26°04' W 080°07'0 0.0
2017-Dec-08 03:58N 26°04' W 080°07'0 0.0
2017-Dec-08 03:28N 26°04' W 080°07'0 0.0
2017-Dec-08 02:58N 26°04' W 080°07'0 0.0
2017-Dec-08 02:28N 26°04' W 080°07'0 0.0
2017-Dec-08 01:58N 26°04' W 080°07'0 0.0
2017-Dec-08 01:28N 26°04' W 080°07'0 0.0
2017-Dec-08 00:58N 26°04' W 080°07'0 0.0
2017-Dec-08 00:28N 26°04' W 080°07'0 0.0
2017-Dec-07 23:58N 26°04' W 080°07'0 0.0
2017-Dec-07 23:28N 26°04' W 080°07'0 0.0
2017-Dec-07 22:58N 26°04' W 080°07'0 0.0
2017-Dec-07 22:28N 26°04' W 080°07'0 0.0
2017-Dec-07 21:58N 26°04' W 080°07'0 0.0
2017-Dec-07 21:28N 26°04' W 080°07'0 0.6
2017-Dec-07 21:00N 26°05' W 080°07'1 2.6
2017-Dec-07 20:30N 26°06' W 080°06'5 9.6
2017-Dec-07 20:00N 26°06' W 080°01'4 8.2
2017-Dec-07 19:30N 26°06' W 079°56'5 9.9
2017-Dec-07 19:00N 26°08' W 079°51'510.2
2017-Dec-07 18:30N 26°10' W 079°46'4 8.7
2017-Dec-07 18:00N 26°12' W 079°41'612.1
2017-Dec-07 17:30N 26°14' W 079°35'612.8
2017-Dec-07 17:00N 26°16' W 079°28'612.9
2017-Dec-07 16:30N 26°18' W 079°21'  
2017-Nov-30 20:47N 38°53' W 031°34'1118.0
2017-Nov-30 20:10N 38°54' W 031°20'318.2
2017-Nov-30 20:00N 38°54' W 031°16'918.0
2017-Nov-30 19:30N 38°55' W 031°04'1018.2
2017-Nov-30 18:57N 38°56' W 030°52'818.1
2017-Nov-30 18:30N 38°57' W 030°41'918.5
2017-Nov-30 18:00N 38°58' W 030°29'918.6
2017-Nov-30 17:30N 38°59' W 030°17'918.3
2017-Nov-30 17:00N 38°60' W 030°06'918.5
2017-Nov-30 16:30N 39°02' W 029°54'918.5
2017-Nov-30 16:00N 39°03' W 029°42'918.8
2017-Nov-30 15:30N 39°05' W 029°30'918.8
2017-Nov-30 15:00N 39°07' W 029°18'918.8
2017-Nov-30 14:30N 39°09' W 029°07'1019.0
2017-Nov-30 14:00N 39°10' W 028°54'918.8
2017-Nov-30 13:30N 39°12' W 028°43'918.8
2017-Nov-30 13:00N 39°14' W 028°31'918.5
2017-Nov-30 12:30N 39°16' W 028°19'918.3
2017-Nov-30 12:00N 39°18' W 028°07'918.6
2017-Nov-30 11:30N 39°20' W 027°56'918.7
2017-Nov-30 11:00N 39°20' W 027°44'918.7
2017-Nov-30 10:30N 39°20' W 027°31'918.6
2017-Nov-30 10:00N 39°20' W 027°19'918.6
2017-Nov-30 09:30N 39°19' W 027°07'918.6
2017-Nov-30 09:00N 39°19' W 026°55'  

Dump ship's entire track history